Eagle Tampa — S6NK6 — position and weather

sailwx.info

Track history (hours):
 
Tides and Currents Weather Stations Pressure Air Temp Water Temp Dewpoint Dewpoint Depression Visibility Wind Speed Wind Dir Waves Ship Positions

Eagle Tampa

Last reported at 2016-Sep-24 22:31 UTC. Time now 2016-Sep-25 00:18 UTC.
Position N 40°50' E 029°12'.

Length 245 m; draft 5.8 m.

Type: Tanker. MMSI: 563936000.

Date/timePositionNaut miles runAvg speedWind from/ knotsBaromVisibWave heightAir tempDewpointWater temp
2016-Sep-24 22:31N 40°50' E 029°12'0 0.1
2016-Sep-24 21:19N 40°50' E 029°13'1 0.6
2016-Sep-24 19:33N 40°51' E 029°12'1 0.7
2016-Sep-24 18:33N 40°51' E 029°12'1 1.5
2016-Sep-24 17:33N 40°51' E 029°14'2 2.0
2016-Sep-24 16:29N 40°51' E 029°17'0 0.0
2016-Sep-24 14:17N 40°51' E 029°17'0 0.0
2016-Sep-24 12:29N 40°51' E 029°17'0 0.0
2016-Sep-24 10:29N 40°51' E 029°17'0 0.0
2016-Sep-24 09:29N 40°51' E 029°17'0 0.0
2016-Sep-24 03:29N 40°51' E 029°17'0 0.0
2016-Sep-24 02:29N 40°51' E 029°17'0 0.0
2016-Sep-24 01:29N 40°51' E 029°17'0 0.0
2016-Sep-24 00:29N 40°51' E 029°17'0 0.0
2016-Sep-23 19:23N 40°51' E 029°17'0 0.0
2016-Sep-23 17:29N 40°51' E 029°17'0 0.0
2016-Sep-23 16:17N 40°51' E 029°17'0 0.0
2016-Sep-23 15:29N 40°51' E 029°17'0 0.0
2016-Sep-23 13:29N 40°51' E 029°17'0 0.0
2016-Sep-23 09:29N 40°51' E 029°17'0 0.0
2016-Sep-23 06:29N 40°51' E 029°17'0 0.0
2016-Sep-23 04:29N 40°51' E 029°17'0 0.0
2016-Sep-23 03:29N 40°51' E 029°17'0 0.0
2016-Sep-23 02:29N 40°51' E 029°17'0 0.0
2016-Sep-23 01:29N 40°51' E 029°17'0 0.0
2016-Sep-23 00:29N 40°51' E 029°17'0 0.0
2016-Sep-22 23:29N 40°51' E 029°17'0 0.0
2016-Sep-22 20:29N 40°51' E 029°17'0 0.0
2016-Sep-22 12:29N 40°51' E 029°17'0 0.0
2016-Sep-22 04:23N 40°51' E 029°17'0 0.0
2016-Sep-22 03:29N 40°51' E 029°17'0 0.0
2016-Sep-22 00:29N 40°51' E 029°17'0 0.0
2016-Sep-21 23:29N 40°51' E 029°17'0 0.0
2016-Sep-21 22:29N 40°51' E 029°17'0 0.0
2016-Sep-21 19:05N 40°51' E 029°17'0 0.0
2016-Sep-21 16:29N 40°51' E 029°17'0 0.0
2016-Sep-21 09:29N 40°51' E 029°17'0 0.0
2016-Sep-21 08:23N 40°51' E 029°17'0 0.0
2016-Sep-21 03:29N 40°51' E 029°17'0 0.0
2016-Sep-21 02:29N 40°51' E 029°17'0 0.0
2016-Sep-20 17:29N 40°51' E 029°17'0 0.0
2016-Sep-20 14:29N 40°51' E 029°17'0 0.0
2016-Sep-20 13:29N 40°51' E 029°17'0 0.0
2016-Sep-20 10:29N 40°51' E 029°17'0 0.0
2016-Sep-20 08:29N 40°51' E 029°17'0 0.0
2016-Sep-20 07:29N 40°51' E 029°17'0 0.0
2016-Sep-20 06:29N 40°51' E 029°17'0 0.0
2016-Sep-20 02:29N 40°51' E 029°17'0 0.0
2016-Sep-19 23:29N 40°51' E 029°17'0 0.0
2016-Sep-19 19:29N 40°51' E 029°17'0 0.0
2016-Sep-19 18:29N 40°51' E 029°17'0 0.0
2016-Sep-19 16:29N 40°51' E 029°17'0 0.0
2016-Sep-19 14:33N 40°51' E 029°17'0 0.0
2016-Sep-19 13:33N 40°51' E 029°17'0 0.0
2016-Sep-19 12:27N 40°51' E 029°17'0 0.0
2016-Sep-19 11:33N 40°51' E 029°17'0 0.0
2016-Sep-19 09:22N 40°51' E 029°17'0 0.0
2016-Sep-19 07:28N 40°51' E 029°17'0 0.0
2016-Sep-19 06:28N 40°51' E 029°17'0 0.0
2016-Sep-19 03:22N 40°51' E 029°17'0 0.0
2016-Sep-19 02:28N 40°51' E 029°17'0 0.0
2016-Sep-19 00:28N 40°51' E 029°17'0 0.0
2016-Sep-18 19:28N 40°51' E 029°17'0 0.0
2016-Sep-18 15:28N 40°51' E 029°17'0 0.0
2016-Sep-18 14:28N 40°51' E 029°17'0 0.0
2016-Sep-18 10:30N 40°51' E 029°17'0 0.0
2016-Sep-18 09:30N 40°51' E 029°17'0 0.0
2016-Sep-18 02:30N 40°51' E 029°17'0 0.0
2016-Sep-18 01:18N 40°51' E 029°17'0 0.0
2016-Sep-18 00:24N 40°51' E 029°17'0 0.0
2016-Sep-17 22:24N 40°51' E 029°17'0 0.0
2016-Sep-17 21:30N 40°51' E 029°17'0 0.0
2016-Sep-17 20:30N 40°51' E 029°17'0 0.0
2016-Sep-17 19:12N 40°51' E 029°17'0 0.0
2016-Sep-17 13:30N 40°51' E 029°17'0 0.0
2016-Sep-17 12:18N 40°51' E 029°17'  
Track history (hours):
 
Tides and Currents Weather Stations Pressure Air Temp Water Temp Dewpoint Dewpoint Depression Visibility Wind Speed Wind Dir Waves Ship Positions

Eagle Tampa

Last reported at 2016-Sep-24 22:31 UTC. Time now 2016-Sep-25 00:18 UTC.
Position N 40°50' E 029°12'.

Length 245 m; draft 5.8 m.

Type: Tanker. MMSI: 563936000.

Date/timePositionNaut miles runAvg speedWind from/ knotsBaromVisibWave heightAir tempDewpointWater temp
2016-Sep-24 22:31N 40°50' E 029°12'0 0.1
2016-Sep-24 21:19N 40°50' E 029°13'1 0.6
2016-Sep-24 19:33N 40°51' E 029°12'1 0.7
2016-Sep-24 18:33N 40°51' E 029°12'1 1.5
2016-Sep-24 17:33N 40°51' E 029°14'2 2.0
2016-Sep-24 16:29N 40°51' E 029°17'0 0.0
2016-Sep-24 14:17N 40°51' E 029°17'0 0.0
2016-Sep-24 12:29N 40°51' E 029°17'0 0.0
2016-Sep-24 10:29N 40°51' E 029°17'0 0.0
2016-Sep-24 09:29N 40°51' E 029°17'0 0.0
2016-Sep-24 03:29N 40°51' E 029°17'0 0.0
2016-Sep-24 02:29N 40°51' E 029°17'0 0.0
2016-Sep-24 01:29N 40°51' E 029°17'0 0.0
2016-Sep-24 00:29N 40°51' E 029°17'0 0.0
2016-Sep-23 19:23N 40°51' E 029°17'0 0.0
2016-Sep-23 17:29N 40°51' E 029°17'0 0.0
2016-Sep-23 16:17N 40°51' E 029°17'0 0.0
2016-Sep-23 15:29N 40°51' E 029°17'0 0.0
2016-Sep-23 13:29N 40°51' E 029°17'0 0.0
2016-Sep-23 09:29N 40°51' E 029°17'0 0.0
2016-Sep-23 06:29N 40°51' E 029°17'0 0.0
2016-Sep-23 04:29N 40°51' E 029°17'0 0.0
2016-Sep-23 03:29N 40°51' E 029°17'0 0.0
2016-Sep-23 02:29N 40°51' E 029°17'0 0.0
2016-Sep-23 01:29N 40°51' E 029°17'0 0.0
2016-Sep-23 00:29N 40°51' E 029°17'0 0.0
2016-Sep-22 23:29N 40°51' E 029°17'0 0.0
2016-Sep-22 20:29N 40°51' E 029°17'0 0.0
2016-Sep-22 12:29N 40°51' E 029°17'0 0.0
2016-Sep-22 04:23N 40°51' E 029°17'0 0.0
2016-Sep-22 03:29N 40°51' E 029°17'0 0.0
2016-Sep-22 00:29N 40°51' E 029°17'0 0.0
2016-Sep-21 23:29N 40°51' E 029°17'0 0.0
2016-Sep-21 22:29N 40°51' E 029°17'0 0.0
2016-Sep-21 19:05N 40°51' E 029°17'0 0.0
2016-Sep-21 16:29N 40°51' E 029°17'0 0.0
2016-Sep-21 09:29N 40°51' E 029°17'0 0.0
2016-Sep-21 08:23N 40°51' E 029°17'0 0.0
2016-Sep-21 03:29N 40°51' E 029°17'0 0.0
2016-Sep-21 02:29N 40°51' E 029°17'0 0.0
2016-Sep-20 17:29N 40°51' E 029°17'0 0.0
2016-Sep-20 14:29N 40°51' E 029°17'0 0.0
2016-Sep-20 13:29N 40°51' E 029°17'0 0.0
2016-Sep-20 10:29N 40°51' E 029°17'0 0.0
2016-Sep-20 08:29N 40°51' E 029°17'0 0.0
2016-Sep-20 07:29N 40°51' E 029°17'0 0.0
2016-Sep-20 06:29N 40°51' E 029°17'0 0.0
2016-Sep-20 02:29N 40°51' E 029°17'0 0.0
2016-Sep-19 23:29N 40°51' E 029°17'0 0.0
2016-Sep-19 19:29N 40°51' E 029°17'0 0.0
2016-Sep-19 18:29N 40°51' E 029°17'0 0.0
2016-Sep-19 16:29N 40°51' E 029°17'0 0.0
2016-Sep-19 14:33N 40°51' E 029°17'0 0.0
2016-Sep-19 13:33N 40°51' E 029°17'0 0.0
2016-Sep-19 12:27N 40°51' E 029°17'0 0.0
2016-Sep-19 11:33N 40°51' E 029°17'0 0.0
2016-Sep-19 09:22N 40°51' E 029°17'0 0.0
2016-Sep-19 07:28N 40°51' E 029°17'0 0.0
2016-Sep-19 06:28N 40°51' E 029°17'0 0.0
2016-Sep-19 03:22N 40°51' E 029°17'0 0.0
2016-Sep-19 02:28N 40°51' E 029°17'0 0.0
2016-Sep-19 00:28N 40°51' E 029°17'0 0.0
2016-Sep-18 19:28N 40°51' E 029°17'0 0.0
2016-Sep-18 15:28N 40°51' E 029°17'0 0.0
2016-Sep-18 14:28N 40°51' E 029°17'0 0.0
2016-Sep-18 10:30N 40°51' E 029°17'0 0.0
2016-Sep-18 09:30N 40°51' E 029°17'0 0.0
2016-Sep-18 02:30N 40°51' E 029°17'0 0.0
2016-Sep-18 01:18N 40°51' E 029°17'0 0.0
2016-Sep-18 00:24N 40°51' E 029°17'0 0.0
2016-Sep-17 22:24N 40°51' E 029°17'0 0.0
2016-Sep-17 21:30N 40°51' E 029°17'0 0.0
2016-Sep-17 20:30N 40°51' E 029°17'0 0.0
2016-Sep-17 19:12N 40°51' E 029°17'0 0.0
2016-Sep-17 13:30N 40°51' E 029°17'0 0.0
2016-Sep-17 12:18N 40°51' E 029°17'  

Dump ship's entire track history